KTOR/TOR METAR and TAF weather

Enter ICAO airport designator
Station Type Date Time Source
KTOR METAR 2020/02/26 09:53 UTC NOAA

KTOR 260953Z AUTO 00000KT 10SM CLR M14/M17 A3034 RMK AO2 SLP334 T11441167


Station Type Date Time Source
KTOR Decoded METAR 2020/02/26 09:53 UTC NOAA

TORRINGTON MUNICIPAL AIRPORT, WY, United States (KTOR) 42-03N 104-09W 1277M
Feb 26, 2020 - 04:53 AM EST / 2020.02.26 0953 UTC
Wind: Calm:0
Visibility: 10 mile(s):0
Sky conditions: clear
Temperature: 6.1 F (-14.4 C)
Dew Point: 1.9 F (-16.7 C)
Relative Humidity: 82%
Pressure (altimeter): 30.34 in. Hg (1027 hPa)
ob: KTOR 260953Z AUTO 00000KT 10SM CLR M14/M17 A3034 RMK AO2 SLP334 T11441167
cycle: 10

Station Type Date Time Source
KTOR TAF UTC NOAA

Error!

Example: see airport list